Time;durP1;ratioP1;P1;durP2;ratioP2;P2;SDS_P1;SDS_P2;PMS_P1;PMS_P2;Temp;Humidity;BMP_temperature;BMP_pressure;BME280_temperature;BME280_humidity;BME280_pressure;Samples;Min_cycle;Max_cycle;Signal;HPM_P1;HPM_P2
2022/05/17 00:01:19;;;;;;;39.40;16.58;;;;;;;14.51;100.00;101839.41;10455360;28;20045;-78
2022/05/17 00:06:20;;;;;;;36.47;16.23;;;;;;;14.38;100.00;101834.28;10455355;28;20029;-77
2022/05/17 00:11:20;;;;;;;33.03;15.80;;;;;;;14.27;100.00;101836.06;10458388;28;20086;-77
2022/05/17 00:16:21;;;;;;;39.00;17.75;;;;;;;14.18;100.00;101832.91;10457270;28;20059;-77
2022/05/17 00:21:21;;;;;;;32.78;15.65;;;;;;;14.08;100.00;101841.06;10438268;28;20041;-77
2022/05/17 00:26:22;;;;;;;41.80;17.48;;;;;;;14.03;100.00;101840.97;10438591;28;20080;-77
2022/05/17 00:31:22;;;;;;;27.80;16.48;;;;;;;13.95;100.00;101846.94;10455905;28;20041;-77
2022/05/17 00:36:23;;;;;;;37.22;17.42;;;;;;;13.78;100.00;101831.19;10454975;28;20082;-77
2022/05/17 00:41:23;;;;;;;30.33;17.33;;;;;;;13.71;100.00;101849.91;10439344;28;20056;-77
2022/05/17 00:46:32;;;;;;;39.03;15.70;;;;;;;13.69;100.00;101843.78;10456656;28;20053;-77
2022/05/17 00:51:33;;;;;;;35.30;15.43;;;;;;;13.59;100.00;101843.59;10422062;28;20039;-77
2022/05/17 00:56:34;;;;;;;31.58;16.05;;;;;;;13.52;100.00;101850.13;10456341;28;20044;-77
2022/05/17 01:01:34;;;;;;;38.05;17.10;;;;;;;13.46;100.00;101853.91;10454613;28;20124;-77
2022/05/17 01:06:40;;;;;;;41.55;17.63;;;;;;;13.42;100.00;101851.91;10495665;28;20045;-76
2022/05/17 01:11:40;;;;;;;35.40;17.23;;;;;;;13.30;100.00;101832.59;10504518;28;20055;-77
2022/05/17 01:16:41;;;;;;;37.40;16.75;;;;;;;13.29;100.00;101847.50;10503586;28;20037;-77
2022/05/17 01:21:41;;;;;;;39.83;15.90;;;;;;;13.31;100.00;101854.47;10497060;28;20041;-76
2022/05/17 01:26:43;;;;;;;29.50;15.05;;;;;;;13.16;100.00;101814.59;10461391;28;20029;-76
2022/05/17 01:31:43;;;;;;;43.28;16.98;;;;;;;13.19;100.00;101838.97;10461154;28;20041;-77
2022/05/17 01:36:44;;;;;;;36.28;14.73;;;;;;;13.22;100.00;101846.78;10461652;28;20439;-75
2022/05/17 01:41:44;;;;;;;32.58;14.25;;;;;;;13.15;100.00;101857.16;10463749;28;20032;-76
2022/05/17 01:46:45;;;;;;;42.40;15.63;;;;;;;13.05;100.00;101855.88;10462857;28;20089;-76
2022/05/17 01:51:45;;;;;;;34.20;15.90;;;;;;;13.00;100.00;101855.81;10461446;28;20055;-77
2022/05/17 01:56:45;;;;;;;32.25;15.85;;;;;;;12.98;100.00;101849.69;10460922;28;20041;-76
2022/05/17 02:01:46;;;;;;;31.13;15.85;;;;;;;12.98;100.00;101852.44;10460350;28;20033;-75
2022/05/17 02:06:46;;;;;;;37.83;15.07;;;;;;;12.94;100.00;101845.72;10462731;28;20117;-75
2022/05/17 02:11:47;;;;;;;31.27;13.80;;;;;;;12.95;100.00;101847.41;10462498;28;20033;-75
2022/05/17 02:16:47;;;;;;;39.22;14.35;;;;;;;12.85;100.00;101845.25;10460372;28;20036;-76
2022/05/17 02:21:48;;;;;;;32.58;14.90;;;;;;;12.76;100.00;101849.50;10441456;28;20128;-77
2022/05/17 02:26:49;;;;;;;35.05;14.05;;;;;;;12.65;100.00;101848.47;10460498;28;20405;-76
2022/05/17 02:31:50;;;;;;;40.35;15.63;;;;;;;12.55;100.00;101834.44;10459419;28;20104;-75
2022/05/17 02:36:51;;;;;;;35.15;15.43;;;;;;;12.61;100.00;101850.03;10461185;28;20416;-76
2022/05/17 02:41:51;;;;;;;35.95;17.17;;;;;;;12.59;100.00;101854.97;10460761;28;20044;-75
2022/05/17 02:46:51;;;;;;;38.40;14.70;;;;;;;12.59;100.00;101852.22;10459740;28;20048;-76
2022/05/17 02:51:54;;;;;;;37.88;15.40;;;;;;;12.60;100.00;101856.63;10457324;28;20509;-75
2022/05/17 02:56:55;;;;;;;40.15;14.90;;;;;;;12.49;100.00;101849.22;10457340;28;20029;-77
2022/05/17 03:01:56;;;;;;;43.65;14.98;;;;;;;12.58;100.00;101858.78;10457594;28;20036;-76
2022/05/17 03:06:56;;;;;;;36.55;14.13;;;;;;;12.46;100.00;101850.56;10459178;28;20040;-76
2022/05/17 03:11:57;;;;;;;34.10;13.18;;;;;;;12.47;100.00;101873.47;10446253;28;20041;-75
2022/05/17 03:16:57;;;;;;;35.10;14.13;;;;;;;12.39;100.00;101877.44;10496541;28;20105;-72
2022/05/17 03:21:58;;;;;;;32.95;13.57;;;;;;;12.21;100.00;101869.31;10480664;28;20964;-77
2022/05/17 03:26:58;;;;;;;37.00;14.57;;;;;;;12.15;100.00;101865.56;10457923;28;20480;-76
2022/05/17 03:31:59;;;;;;;36.80;14.45;;;;;;;12.03;100.00;101861.97;10456224;28;20068;-76
2022/05/17 03:36:59;;;;;;;32.08;13.77;;;;;;;12.11;100.00;101875.41;10463151;28;20090;-75
2022/05/17 03:42:00;;;;;;;36.50;13.55;;;;;;;11.98;100.00;101875.66;10458828;28;20041;-76
2022/05/17 03:47:05;;;;;;;35.13;15.98;;;;;;;11.96;100.00;101875.06;10456421;28;20037;-77
2022/05/17 03:52:06;;;;;;;35.88;15.68;;;;;;;11.94;100.00;101886.34;10456083;28;20056;-77
2022/05/17 03:57:07;;;;;;;36.17;16.92;;;;;;;11.93;100.00;101890.19;10466195;28;20075;-77
2022/05/17 04:02:07;;;;;;;32.42;16.25;;;;;;;11.96;100.00;101891.63;10455237;28;20037;-77
2022/05/17 04:07:08;;;;;;;44.30;16.48;;;;;;;11.95;100.00;101893.56;10458432;28;20033;-77
2022/05/17 04:12:09;;;;;;;40.60;18.90;;;;;;;11.95;100.00;101884.41;10457519;28;20131;-77
2022/05/17 04:17:09;;;;;;;37.03;19.52;;;;;;;11.96;100.00;101877.81;10455579;28;20093;-77
2022/05/17 04:22:11;;;;;;;39.15;19.70;;;;;;;12.15;100.00;101903.38;10453791;28;20048;-78
2022/05/17 04:27:14;;;;;;;48.95;19.65;;;;;;;12.26;100.00;101903.41;10438376;28;20061;-77
2022/05/17 04:32:14;;;;;;;41.08;19.58;;;;;;;12.37;100.00;101901.69;10454715;28;20204;-77
2022/05/17 04:37:15;;;;;;;44.55;20.25;;;;;;;12.44;100.00;101907.09;10456054;28;20496;-76
2022/05/17 04:42:15;;;;;;;46.03;20.13;;;;;;;12.48;100.00;101909.13;10457067;28;20045;-77
2022/05/17 04:47:16;;;;;;;45.33;20.33;;;;;;;12.54;100.00;101907.31;10479467;28;20107;-78
2022/05/17 04:52:16;;;;;;;51.15;21.92;;;;;;;12.58;100.00;101914.03;10504568;28;20036;-77
2022/05/17 04:57:17;;;;;;;47.78;22.35;;;;;;;12.71;100.00;101915.69;10503664;28;20043;-74
2022/05/17 05:02:17;;;;;;;47.47;22.23;;;;;;;12.84;100.00;101911.84;10487209;28;20045;-77
2022/05/17 05:07:18;;;;;;;53.50;23.33;;;;;;;12.98;100.00;101918.78;10465009;28;20047;-76
2022/05/17 05:12:18;;;;;;;52.30;22.63;;;;;;;13.17;100.00;101921.34;10464341;28;20107;-76
2022/05/17 05:17:19;;;;;;;43.65;19.35;;;;;;;13.36;100.00;101925.63;10463637;28;20033;-76
2022/05/17 05:22:19;;;;;;;40.45;16.00;;;;;;;13.55;100.00;101928.19;10483137;28;20045;-76
2022/05/17 05:27:20;;;;;;;31.60;13.82;;;;;;;13.73;100.00;101933.50;10502124;28;20039;-77
2022/05/17 05:32:20;;;;;;;26.90;11.70;;;;;;;13.86;100.00;101930.41;10504631;28;20071;-76
2022/05/17 05:37:21;;;;;;;29.33;13.05;;;;;;;14.12;100.00;101933.63;10505459;28;20049;-76
2022/05/17 05:42:21;;;;;;;27.80;11.75;;;;;;;14.27;100.00;101920.00;10502449;28;20488;-76
2022/05/17 05:47:22;;;;;;;20.77;10.07;;;;;;;14.41;100.00;101936.28;10484479;28;20110;-77
2022/05/17 05:52:22;;;;;;;27.63;10.98;;;;;;;14.52;100.00;101932.56;10493133;28;20053;-71
2022/05/17 05:57:23;;;;;;;21.67;9.73;;;;;;;14.52;100.00;101927.00;10459813;28;20040;-77
2022/05/17 06:02:23;;;;;;;27.02;10.88;;;;;;;14.51;100.00;101922.53;10460122;28;20512;-77
2022/05/17 06:07:24;;;;;;;28.70;11.95;;;;;;;14.77;100.00;101945.13;10462820;28;20079;-77
2022/05/17 06:12:24;;;;;;;27.08;10.80;;;;;;;14.99;100.00;101948.75;10461711;28;20091;-76
2022/05/17 06:17:27;;;;;;;25.83;8.63;;;;;;;15.28;100.00;101945.78;10461013;28;20029;-77
2022/05/17 06:22:28;;;;;;;22.63;8.55;;;;;;;15.50;100.00;101940.16;10500833;28;20044;-79
2022/05/17 06:27:28;;;;;;;26.33;9.43;;;;;;;15.66;100.00;101955.03;10483560;28;20037;-78
2022/05/17 06:32:29;;;;;;;17.42;7.32;;;;;;;15.66;100.00;101953.09;10500297;28;20277;-77
2022/05/17 06:37:30;;;;;;;22.30;8.65;;;;;;;15.76;100.00;101957.13;10484271;28;20162;-75
2022/05/17 06:42:30;;;;;;;16.05;7.28;;;;;;;15.89;100.00;101963.06;10501427;28;20424;-78
2022/05/17 06:47:31;;;;;;;15.43;7.43;;;;;;;16.13;100.00;101971.06;10498317;28;20036;-77
2022/05/17 06:52:31;;;;;;;21.00;7.32;;;;;;;16.33;100.00;101978.75;10493332;28;20037;-77
2022/05/17 06:57:32;;;;;;;19.73;6.60;;;;;;;16.63;100.00;101986.44;10456876;28;20048;-77
2022/05/17 07:02:35;;;;;;;13.25;5.88;;;;;;;16.82;100.00;101986.03;10458099;28;20079;-76
2022/05/17 07:07:37;;;;;;;21.05;7.38;;;;;;;17.05;100.00;101987.53;10457652;28;20037;-78
2022/05/17 07:18:00;;;;;;;17.90;5.88;;;;;;;17.35;100.00;101996.00;10493570;28;20446;-80
2022/05/17 07:23:01;;;;;;;18.17;5.25;;;;;;;17.38;100.00;102000.19;10497956;28;20492;-82
2022/05/17 07:28:01;;;;;;;15.20;6.00;;;;;;;17.49;100.00;101999.13;10480780;28;20033;-79
2022/05/17 07:33:02;;;;;;;13.52;5.28;;;;;;;17.52;100.00;101993.00;10497082;28;20043;-80
2022/05/17 07:38:04;;;;;;;13.43;5.20;;;;;;;17.80;100.00;102007.56;10496425;28;20059;-81
2022/05/17 07:43:04;;;;;;;15.13;5.47;;;;;;;18.08;100.00;102003.44;10495548;28;20037;-80
2022/05/17 07:48:05;;;;;;;15.55;5.28;;;;;;;18.25;100.00;102019.91;10494287;28;20658;-79
2022/05/17 07:53:10;;;;;;;17.88;5.10;;;;;;;18.33;100.00;102022.16;10487771;28;20067;-79
2022/05/17 07:58:10;;;;;;;11.70;4.07;;;;;;;18.38;100.00;102028.84;10461964;28;20401;-79
2022/05/17 08:03:15;;;;;;;12.48;4.65;;;;;;;18.64;100.00;102038.00;10495494;28;20074;-79
2022/05/17 08:08:15;;;;;;;16.63;5.00;;;;;;;18.72;100.00;102024.31;10495322;28;20186;-80
2022/05/17 08:13:17;;;;;;;10.13;4.47;;;;;;;18.95;100.00;102030.44;10496014;28;20511;-81
2022/05/17 08:18:17;;;;;;;8.10;3.90;;;;;;;18.81;100.00;102038.59;10492831;28;20032;-78
2022/05/17 08:23:18;;;;;;;13.32;5.70;;;;;;;18.62;100.00;102004.81;10494761;28;20028;-78
2022/05/17 08:28:18;;;;;;;14.45;5.28;;;;;;;19.12;100.00;102032.91;10470401;28;20033;-81
2022/05/17 08:33:20;;;;;;;13.65;4.80;;;;;;;19.02;100.00;102044.94;10495101;28;20056;-79
2022/05/17 08:38:30;;;;;;;16.80;5.78;;;;;;;19.34;100.00;102052.09;10495105;28;20028;-81
2022/05/17 08:43:43;;;;;;;14.75;5.05;;;;;;;19.76;100.00;102031.25;10480291;28;20048;-74
2022/05/17 08:48:50;;;;;;;12.88;3.90;;;;;;;19.65;100.00;102047.22;10495993;28;20108;-77
2022/05/17 08:53:50;;;;;;;14.57;4.03;;;;;;;19.64;100.00;102039.97;10494611;28;20045;-79
2022/05/17 08:58:51;;;;;;;11.15;3.78;;;;;;;19.80;100.00;102037.94;10478291;28;20417;-79
2022/05/17 09:04:17;;;;;;;10.07;3.70;;;;;;;19.89;100.00;102044.59;10477679;28;20461;-77
2022/05/17 09:09:48;;;;;;;11.15;4.40;;;;;;;20.32;100.00;102052.41;10491541;28;20032;-78
2022/05/17 09:14:49;;;;;;;14.05;4.72;;;;;;;20.33;100.00;102046.50;10495168;28;20233;-74
2022/05/17 09:19:50;;;;;;;10.07;3.50;;;;;;;20.51;100.00;102035.75;10493726;28;20048;-80
2022/05/17 09:24:58;;;;;;;10.57;3.22;;;;;;;20.66;100.00;102049.63;10492947;28;20031;-78
2022/05/17 09:30:13;;;;;;;8.52;3.40;;;;;;;21.13;100.00;102044.38;10495969;28;20040;-77
2022/05/17 09:35:20;;;;;;;9.48;2.95;;;;;;;21.42;100.00;102044.34;10479391;28;20431;-78
2022/05/17 09:40:24;;;;;;;12.05;3.63;;;;;;;21.81;100.00;102045.19;10502009;28;20036;-78
2022/05/17 09:45:58;;;;;;;9.45;3.70;;;;;;;22.14;100.00;102048.94;10502835;28;20115;-77
2022/05/17 09:56:25;;;;;;;7.63;2.10;;;;;;;22.07;94.33;102040.06;10457283;28;20049;-81
2022/05/17 10:01:29;;;;;;;8.35;2.22;;;;;;;22.39;95.59;102044.06;10474426;28;20127;-77
2022/05/17 10:06:32;;;;;;;7.57;2.30;;;;;;;22.43;90.39;102033.88;10458705;28;20127;-75
2022/05/17 10:11:52;;;;;;;6.20;2.28;;;;;;;22.13;90.38;102041.66;10501213;28;20048;-76
2022/05/17 10:17:00;;;;;;;9.00;2.17;;;;;;;22.73;88.69;102038.97;10506543;28;20036;-77
2022/05/17 10:22:18;;;;;;;11.98;2.05;;;;;;;22.65;87.56;102042.47;10482874;28;20037;-77
2022/05/17 10:27:54;;;;;;;9.48;2.58;;;;;;;22.04;88.29;102040.69;10501394;28;20033;-75
2022/05/17 10:32:57;;;;;;;7.35;2.25;;;;;;;22.74;85.79;102037.84;10488471;28;20052;-77
2022/05/17 10:38:10;;;;;;;8.95;2.55;;;;;;;22.85;84.73;102018.00;10500022;28;20495;-76
2022/05/17 10:43:27;;;;;;;5.18;1.70;;;;;;;23.63;82.16;102021.72;10484146;28;20481;-77
2022/05/17 10:48:34;;;;;;;7.57;1.88;;;;;;;24.10;80.31;102018.69;10471476;28;20376;-80
2022/05/17 10:53:47;;;;;;;9.18;2.88;;;;;;;24.12;79.17;102022.00;10499644;28;20044;-82
2022/05/17 10:59:18;;;;;;;7.72;2.17;;;;;;;24.20;79.00;102012.81;10494493;28;20039;-77
2022/05/17 11:05:02;;;;;;;15.00;2.38;;;;;;;23.97;79.19;102026.03;10497894;28;20119;-79
2022/05/17 11:10:10;;;;;;;11.80;3.00;;;;;;;23.81;77.47;101991.81;10473672;28;20051;-84
2022/05/17 11:15:18;;;;;;;7.70;2.38;;;;;;;24.05;74.63;102005.59;10424284;28;20501;-78
2022/05/17 11:20:40;;;;;;;9.98;2.33;;;;;;;24.46;76.37;102007.38;10425624;28;20087;-79
2022/05/17 11:26:04;;;;;;;11.23;2.90;;;;;;;23.89;74.15;102002.31;10440317;28;20045;-79
2022/05/17 11:31:18;;;;;;;11.13;3.03;;;;;;;23.93;79.13;102003.34;10456270;28;20558;-77
2022/05/17 11:36:31;;;;;;;9.60;1.88;;;;;;;24.70;70.38;101975.22;10439441;28;20037;-77
2022/05/17 11:41:33;;;;;;;8.70;2.40;;;;;;;24.51;70.07;101989.53;10458733;28;20075;-81
2022/05/17 11:46:34;;;;;;;11.38;2.47;;;;;;;24.09;70.89;101988.91;10458461;28;20041;-82
2022/05/17 11:51:39;;;;;;;9.23;2.17;;;;;;;24.36;71.15;101987.94;10463881;28;20516;-79
2022/05/17 11:56:40;;;;;;;9.02;2.10;;;;;;;25.76;68.65;101986.50;10496116;28;20036;-82
2022/05/17 12:01:43;;;;;;;5.25;1.67;;;;;;;27.02;67.46;101977.94;10477064;28;20036;-82
2022/05/17 12:06:53;;;;;;;7.13;1.90;;;;;;;27.60;58.00;101952.81;10466820;28;20045;-77
2022/05/17 12:12:02;;;;;;;5.57;1.45;;;;;;;28.59;55.34;101954.91;10457572;28;20033;-78
2022/05/17 12:17:04;;;;;;;8.23;2.28;;;;;;;29.62;58.48;101961.44;10455991;28;20151;-80
2022/05/17 12:22:20;;;;;;;6.25;1.98;;;;;;;30.52;53.09;101942.16;10454686;28;20121;-81
2022/05/17 12:27:22;;;;;;;;;;;;;;;30.60;50.16;101944.00;10437690;28;20116;-85
2022/05/17 12:32:22;;;;;;;9.90;2.20;;;;;;;30.28;47.03;101926.06;10456340;28;19921;-81
2022/05/17 12:37:25;;;;;;;8.43;1.70;;;;;;;29.74;46.85;101927.38;10456968;28;20037;-80
2022/05/17 12:47:50;;;;;;;7.32;1.88;;;;;;;28.64;47.84;101928.34;10454192;28;20066;-77
2022/05/17 12:52:55;;;;;;;6.95;1.90;;;;;;;28.33;50.75;101944.66;10453883;28;20060;-77
2022/05/17 12:57:55;;;;;;;6.30;2.20;;;;;;;27.89;49.40;101927.28;10477930;28;20396;-77
2022/05/17 13:02:59;;;;;;;11.48;2.75;;;;;;;28.76;48.35;101926.31;10496265;28;20100;-81
2022/05/17 13:08:10;;;;;;;6.97;1.83;;;;;;;28.44;47.01;101902.53;10505211;28;20036;-77
2022/05/17 13:13:14;;;;;;;6.75;1.73;;;;;;;27.33;53.00;101932.41;10503197;28;20497;-79
2022/05/17 13:18:15;;;;;;;5.63;1.50;;;;;;;27.32;54.35;101942.88;10503921;28;20041;-79
2022/05/17 13:23:21;;;;;;;5.18;1.50;;;;;;;27.61;53.49;101937.50;10485375;28;20056;-74
2022/05/17 13:28:26;;;;;;;5.93;1.88;;;;;;;26.97;54.26;101911.13;10482549;28;20512;-81
2022/05/17 13:33:31;;;;;;;7.32;2.50;;;;;;;26.64;56.79;101928.75;10483782;28;20044;-81
2022/05/17 13:38:33;;;;;;;8.33;2.23;;;;;;;25.50;58.82;101919.59;10482598;28;20117;-76
2022/05/17 13:43:37;;;;;;;7.72;2.05;;;;;;;25.42;62.07;101942.16;10502488;28;20041;-72
2022/05/17 13:48:40;;;;;;;7.53;2.10;;;;;;;25.25;67.40;101951.44;10503114;28;20037;-78
2022/05/17 13:53:45;;;;;;;9.32;3.30;;;;;;;25.01;65.77;101935.75;10503627;28;20063;-77
2022/05/17 13:58:46;;;;;;;9.45;3.60;;;;;;;24.78;71.84;101935.00;10471954;28;20037;-75
2022/05/17 14:04:10;;;;;;;10.80;4.47;;;;;;;24.69;77.13;101945.41;10460014;28;20044;-77
2022/05/17 14:14:30;;;;;;;9.82;4.05;;;;;;;26.36;68.72;101922.69;10460496;28;20093;-78
2022/05/17 14:19:32;;;;;;;9.80;3.92;;;;;;;27.50;66.26;101917.28;10461756;28;20037;-75
2022/05/17 14:24:33;;;;;;;9.10;4.68;;;;;;;28.13;60.12;101908.72;10460332;28;20060;-77
2022/05/17 14:29:34;;;;;;;11.98;4.15;;;;;;;27.73;62.15;101923.41;10457982;28;20516;-77
2022/05/17 14:34:35;;;;;;;9.95;4.18;;;;;;;28.34;63.10;101919.97;10460129;28;20044;-78
2022/05/17 14:39:35;;;;;;;16.30;4.65;;;;;;;28.44;58.49;101915.88;10460212;28;20421;-78
2022/05/17 14:44:37;;;;;;;9.32;4.57;;;;;;;28.30;57.79;101907.69;10458775;28;20052;-78
2022/05/17 14:49:37;;;;;;;12.95;3.90;;;;;;;28.14;57.99;101899.91;10460579;28;20037;-75
2022/05/17 14:54:38;;;;;;;9.55;3.40;;;;;;;28.49;57.52;101898.66;10464500;28;20032;-80
2022/05/17 14:59:38;;;;;;;7.60;3.15;;;;;;;28.85;54.77;101886.53;10498354;28;20223;-81
2022/05/17 15:04:40;;;;;;;11.50;2.85;;;;;;;29.63;55.59;101889.34;10496519;28;20032;-79
2022/05/17 15:09:40;;;;;;;9.20;2.92;;;;;;;30.24;51.92;101869.16;10461973;28;20170;-77
2022/05/17 15:14:41;;;;;;;7.38;2.78;;;;;;;30.53;50.36;101870.75;10458851;28;20058;-72
2022/05/17 15:19:43;;;;;;;9.07;2.35;;;;;;;30.90;48.87;101866.78;10474678;28;20064;-73
2022/05/17 15:24:43;;;;;;;6.60;2.20;;;;;;;31.50;46.34;101850.28;10498817;28;20048;-78
2022/05/17 15:29:44;;;;;;;9.52;2.75;;;;;;;32.18;46.09;101850.75;10476349;28;20041;-79
2022/05/17 15:34:44;;;;;;;12.15;2.50;;;;;;;32.01;45.19;101856.97;10457045;28;20052;-76
2022/05/17 15:39:46;;;;;;;9.65;3.00;;;;;;;30.74;47.02;101870.44;10456260;28;20490;-78
2022/05/17 15:44:46;;;;;;;12.15;3.45;;;;;;;28.41;50.87;101868.44;10457535;28;20128;-77
2022/05/17 15:55:07;;;;;;;7.65;3.13;;;;;;;27.58;55.90;101859.81;10456473;28;20041;-78
2022/05/17 16:00:08;;;;;;;9.82;2.45;;;;;;;28.99;54.89;101837.97;10456500;28;20048;-79
2022/05/17 16:05:09;;;;;;;5.50;2.50;;;;;;;30.23;49.83;101830.59;10469782;28;20480;-78
2022/05/17 16:10:10;;;;;;;5.80;2.35;;;;;;;30.77;47.42;101826.25;10436653;28;20116;-78
2022/05/17 16:15:12;;;;;;;7.28;2.10;;;;;;;31.69;46.81;101808.72;10456450;28;20036;-77
2022/05/17 16:20:16;;;;;;;7.38;2.33;;;;;;;31.00;46.41;101817.84;10488333;28;20036;-78
2022/05/17 16:25:17;;;;;;;8.20;2.17;;;;;;;30.14;47.68;101836.47;10496513;28;20036;-77
2022/05/17 16:30:19;;;;;;;8.63;2.10;;;;;;;28.94;50.59;101841.88;10496259;28;20033;-83
2022/05/17 16:35:23;;;;;;;8.50;2.55;;;;;;;27.29;53.94;101869.22;10495850;28;20047;-76
2022/05/17 16:40:24;;;;;;;6.05;1.60;;;;;;;25.88;56.88;101871.00;10501533;28;20035;-78
2022/05/17 16:45:24;;;;;;;6.13;1.85;;;;;;;24.90;59.96;101866.78;10505136;28;20047;-74
2022/05/17 16:50:34;;;;;;;6.95;1.85;;;;;;;24.47;60.34;101859.00;10504002;28;20029;-76
2022/05/17 16:55:35;;;;;;;10.18;2.10;;;;;;;24.52;62.19;101870.16;10484478;28;20059;-78
2022/05/17 17:00:40;;;;;;;6.72;1.73;;;;;;;24.13;63.21;101860.53;10503013;28;20041;-78
2022/05/17 17:05:46;;;;;;;10.18;2.38;;;;;;;23.72;64.99;101878.44;10469102;28;20176;-76
2022/05/17 17:10:47;;;;;;;5.03;1.30;;;;;;;23.71;65.29;101869.16;10487012;28;20048;-76
2022/05/17 17:15:47;;;;;;;7.32;1.98;;;;;;;24.26;65.92;101873.66;10503288;28;20136;-75
2022/05/17 17:20:48;;;;;;;7.40;2.97;;;;;;;24.22;67.01;101869.00;10504710;28;20439;-76
2022/05/17 17:25:49;;;;;;;10.52;2.70;;;;;;;23.97;67.36;101876.97;10501778;28;20051;-77
2022/05/17 17:30:49;;;;;;;9.02;2.10;;;;;;;23.70;69.50;101891.97;10500549;28;20090;-75
2022/05/17 17:41:10;;;;;;;6.45;1.75;;;;;;;22.95;73.16;101906.28;10501373;28;20044;-75
2022/05/17 17:46:12;;;;;;;8.73;2.35;;;;;;;22.57;75.08;101905.66;10501877;28;20041;-73
2022/05/17 17:51:13;;;;;;;9.43;1.90;;;;;;;22.35;74.17;101901.59;10498375;28;20466;-75
2022/05/17 17:56:15;;;;;;;7.97;1.95;;;;;;;22.15;76.43;101904.75;10500861;28;20036;-76
2022/05/17 18:01:17;;;;;;;8.23;2.05;;;;;;;21.92;78.19;101900.94;10487430;28;20045;-79
2022/05/17 18:06:17;;;;;;;9.23;2.50;;;;;;;21.73;79.94;101915.00;10457832;28;20481;-78
2022/05/17 18:11:19;;;;;;;8.65;2.78;;;;;;;21.50;84.50;101917.59;10460856;28;20037;-77
2022/05/17 18:16:33;;;;;;;9.32;2.00;;;;;;;21.25;85.67;101920.72;10441666;28;20075;-77
2022/05/17 18:21:37;;;;;;;13.35;3.13;;;;;;;21.02;88.46;101922.44;10459037;28;20045;-78
2022/05/17 18:26:38;;;;;;;6.70;2.13;;;;;;;20.75;91.11;101919.13;10462510;28;20581;-78
2022/05/17 18:31:42;;;;;;;8.57;2.70;;;;;;;20.61;96.72;101923.78;10456854;28;20036;-78
2022/05/17 18:36:42;;;;;;;7.50;2.38;;;;;;;20.41;98.81;101923.97;10459256;28;20032;-77
2022/05/17 18:41:43;;;;;;;9.18;2.50;;;;;;;20.17;100.00;101935.91;10461168;28;20037;-76
2022/05/17 18:46:45;;;;;;;8.00;2.08;;;;;;;19.94;100.00;101921.56;10457985;28;20044;-77
2022/05/17 18:51:46;;;;;;;6.97;1.80;;;;;;;19.60;100.00;101906.75;10457418;28;20060;-76
2022/05/17 18:56:46;;;;;;;9.73;2.75;;;;;;;19.47;100.00;101927.75;10457625;28;20025;-76
2022/05/17 19:01:46;;;;;;;4.95;2.00;;;;;;;19.23;100.00;101916.47;10457384;28;20045;-75
2022/05/17 19:06:47;;;;;;;15.00;3.10;;;;;;;19.15;100.00;101929.91;10457399;28;20029;-74
2022/05/17 19:17:07;;;;;;;9.55;2.42;;;;;;;18.98;100.00;101934.19;10457075;28;20033;-77
2022/05/17 19:22:13;;;;;;;7.95;2.85;;;;;;;18.86;100.00;101937.28;10456008;28;20036;-77
2022/05/17 19:27:13;;;;;;;7.22;3.17;;;;;;;18.75;100.00;101934.50;10456707;28;20040;-77
2022/05/17 19:32:25;;;;;;;8.75;2.83;;;;;;;18.49;100.00;101922.56;10457431;28;20040;-76
2022/05/17 19:43:05;;;;;;;6.45;3.22;;;;;;;18.38;100.00;101934.03;10432793;28;20052;-78
2022/05/17 19:48:11;;;;;;;14.93;3.70;;;;;;;18.29;100.00;101942.97;10456934;28;20053;-78
2022/05/17 19:53:13;;;;;;;6.60;2.88;;;;;;;18.10;100.00;101942.69;10456858;28;20040;-77
2022/05/17 19:58:14;;;;;;;7.60;3.08;;;;;;;18.18;100.00;101963.59;10455785;28;20037;-78
2022/05/17 20:03:15;;;;;;;8.88;3.25;;;;;;;18.08;100.00;101949.66;10455945;28;20045;-78
2022/05/17 20:08:16;;;;;;;6.40;2.67;;;;;;;18.11;100.00;101971.41;10456498;28;20475;-77
2022/05/17 20:13:16;;;;;;;7.45;3.22;;;;;;;18.00;100.00;101961.38;10455520;28;20135;-78
2022/05/17 20:18:17;;;;;;;9.00;3.00;;;;;;;17.99;100.00;101970.84;10471786;28;20029;-76
2022/05/17 20:23:17;;;;;;;8.40;3.85;;;;;;;17.85;100.00;101949.09;10485520;28;20058;-76
2022/05/17 20:28:19;;;;;;;10.60;4.82;;;;;;;17.86;100.00;101967.50;10495161;28;20037;-76
2022/05/17 20:33:23;;;;;;;9.88;4.47;;;;;;;17.79;100.00;101972.44;10497018;28;20062;-75
2022/05/17 20:38:24;;;;;;;10.73;4.43;;;;;;;17.71;100.00;101961.84;10495784;28;20044;-77
2022/05/17 20:43:26;;;;;;;13.15;5.18;;;;;;;17.63;100.00;101965.19;10493944;28;20502;-77
2022/05/17 20:48:26;;;;;;;12.32;7.07;;;;;;;17.54;100.00;101965.72;10493978;28;20029;-77
2022/05/17 20:53:27;;;;;;;15.57;8.50;;;;;;;17.51;100.00;101960.72;10495730;28;20033;-77
2022/05/17 20:58:28;;;;;;;24.77;11.43;;;;;;;17.49;100.00;101973.25;10496358;28;20033;-76
2022/05/17 21:03:29;;;;;;;30.90;13.85;;;;;;;17.46;100.00;101963.47;10467218;28;20064;-77
2022/05/17 21:08:30;;;;;;;25.65;14.10;;;;;;;17.44;100.00;101964.88;10454713;28;20044;-76
2022/05/17 21:13:30;;;;;;;26.38;16.73;;;;;;;17.41;100.00;101962.63;10472262;28;20367;-76
2022/05/17 21:18:31;;;;;;;27.08;17.27;;;;;;;17.40;100.00;101963.75;10478250;28;20051;-76
2022/05/17 21:23:31;;;;;;;41.22;21.17;;;;;;;17.41;100.00;101969.03;10478124;28;20122;-76
2022/05/17 21:28:34;;;;;;;35.15;21.45;;;;;;;17.39;100.00;101968.47;10501898;28;20048;-76
2022/05/17 21:33:34;;;;;;;28.95;19.75;;;;;;;17.37;100.00;101970.69;10502198;28;20033;-76
2022/05/17 21:38:35;;;;;;;34.25;21.70;;;;;;;17.34;100.00;101960.94;10486744;28;20041;-76
2022/05/17 21:43:35;;;;;;;28.48;20.85;;;;;;;17.30;100.00;101954.25;10461425;28;20056;-76
2022/05/17 21:48:35;;;;;;;36.42;19.65;;;;;;;17.25;100.00;101950.63;10462027;28;20037;-76
2022/05/17 21:53:36;;;;;;;32.60;18.27;;;;;;;17.19;100.00;101946.97;10462834;28;20030;-76
2022/05/17 21:58:38;;;;;;;27.88;17.55;;;;;;;17.15;100.00;101935.53;10462353;28;20037;-74
2022/05/17 22:03:38;;;;;;;28.58;19.20;;;;;;;17.18;100.00;101938.88;10460333;28;20064;-75
2022/05/17 22:08:39;;;;;;;25.67;17.67;;;;;;;17.20;100.00;101939.44;10461445;28;20032;-75
2022/05/17 22:13:45;;;;;;;27.98;17.10;;;;;;;17.20;100.00;101937.53;10461307;28;20045;-75
2022/05/17 22:18:47;;;;;;;21.40;15.90;;;;;;;17.19;100.00;101946.13;10461147;28;20059;-75
2022/05/17 22:23:47;;;;;;;27.15;14.82;;;;;;;17.17;100.00;101953.94;10461487;28;20056;-76
2022/05/17 22:28:47;;;;;;;21.52;14.63;;;;;;;17.10;100.00;101943.88;10462106;28;20029;-75
2022/05/17 22:33:48;;;;;;;20.95;13.65;;;;;;;17.14;100.00;101950.56;10459392;28;20033;-75
2022/05/17 22:38:49;;;;;;;20.50;13.15;;;;;;;17.14;100.00;101953.34;10458180;28;20041;-76
2022/05/17 22:43:49;;;;;;;22.45;12.80;;;;;;;17.12;100.00;101951.97;10459990;28;20048;-75
2022/05/17 22:48:50;;;;;;;22.85;12.02;;;;;;;17.08;100.00;101951.66;10457396;28;20101;-76
2022/05/17 22:53:56;;;;;;;17.27;10.93;;;;;;;16.96;100.00;101937.16;10482188;28;20115;-76
2022/05/17 22:58:57;;;;;;;19.67;10.68;;;;;;;17.04;100.00;101944.97;10501648;28;20074;-75
2022/05/17 23:03:57;;;;;;;20.60;12.80;;;;;;;17.05;100.00;101949.44;10498862;28;20391;-75
2022/05/17 23:08:58;;;;;;;20.08;12.35;;;;;;;17.07;100.00;101947.19;10480612;28;20040;-75
2022/05/17 23:13:58;;;;;;;18.38;13.57;;;;;;;17.07;100.00;101954.72;10500092;28;20416;-76
2022/05/17 23:19:01;;;;;;;19.88;14.32;;;;;;;17.05;100.00;101946.66;10476930;28;20404;-75
2022/05/17 23:24:01;;;;;;;26.73;16.52;;;;;;;17.04;100.00;101953.31;10458743;28;20488;-76
2022/05/17 23:29:02;;;;;;;24.02;17.52;;;;;;;17.06;100.00;101947.50;10459233;28;20044;-76